Terminal Aerodrome Forecast
Issued by NWS

Home | Current Version | Previous Version | Text Only | Print | Product List | Glossary Off
Versions: 1 2 3 4 5 6 7 8 9 10 11 12 13 14 15 16 17 18 19 20 21 22 23 24 25 26 27 28 29

451
FTUS43 KBIS 131533 AAA
TAFJMS
TAF AMD
KJMS 131533Z 1316/1412 32022G29KT P6SM OVC025
      TEMPO 1316/1318 BKN016
     FM131800 33020G30KT P6SM OVC025
     FM140100 33013KT P6SM BKN025
     FM140600 30006KT P6SM OVC015
     FM141000 30004KT 3SM -SN BR OVC012=

USA.gov is the U.S. government's official web portal to all federal, state and local government web resources and services.